sensor_id;sensor_type;location;lat;lon;timestamp;pressure;altitude;pressure_sealevel;temperature;humidity
64521;BME280;50896;46.714;17.322;2023-03-19T00:00:33;100689.66;;;5.17;74.23
64521;BME280;50896;46.714;17.322;2023-03-19T00:03:00;100681.75;;;5.17;73.11
64521;BME280;50896;46.714;17.322;2023-03-19T00:05:27;100686.53;;;5.11;72.32
64521;BME280;50896;46.714;17.322;2023-03-19T00:07:54;100694.31;;;5.13;73.08
64521;BME280;50896;46.714;17.322;2023-03-19T00:10:21;100681.88;;;5.04;73.54
64521;BME280;50896;46.714;17.322;2023-03-19T00:12:48;100693.50;;;5.01;74.79
64521;BME280;50896;46.714;17.322;2023-03-19T00:15:15;100687.50;;;4.99;74.81
64521;BME280;50896;46.714;17.322;2023-03-19T00:17:42;100670.13;;;4.85;75.77
64521;BME280;50896;46.714;17.322;2023-03-19T00:20:10;100679.84;;;4.85;75.12
64521;BME280;50896;46.714;17.322;2023-03-19T00:22:38;100691.81;;;4.89;75.55
64521;BME280;50896;46.714;17.322;2023-03-19T00:25:06;100682.34;;;4.86;75.56
64521;BME280;50896;46.714;17.322;2023-03-19T00:27:35;100685.81;;;4.87;76.10
64521;BME280;50896;46.714;17.322;2023-03-19T00:30:04;100687.63;;;4.86;76.57
64521;BME280;50896;46.714;17.322;2023-03-19T00:32:32;100684.16;;;4.86;76.81
64521;BME280;50896;46.714;17.322;2023-03-19T00:35:00;100687.97;;;4.93;75.75
64521;BME280;50896;46.714;17.322;2023-03-19T00:37:27;100666.66;;;4.85;75.11
64521;BME280;50896;46.714;17.322;2023-03-19T00:39:54;100675.25;;;4.87;75.14
64521;BME280;50896;46.714;17.322;2023-03-19T00:42:21;100676.00;;;4.77;75.93
64521;BME280;50896;46.714;17.322;2023-03-19T00:44:49;100684.13;;;4.74;74.65
64521;BME280;50896;46.714;17.322;2023-03-19T00:47:15;100679.69;;;4.64;75.01
64521;BME280;50896;46.714;17.322;2023-03-19T00:49:42;100660.13;;;4.43;75.71
64521;BME280;50896;46.714;17.322;2023-03-19T00:52:09;100676.53;;;4.47;75.35
64521;BME280;50896;46.714;17.322;2023-03-19T00:54:38;100675.22;;;4.41;75.75
64521;BME280;50896;46.714;17.322;2023-03-19T00:57:06;100665.47;;;4.31;76.85
64521;BME280;50896;46.714;17.322;2023-03-19T00:59:33;100670.75;;;4.31;77.54
64521;BME280;50896;46.714;17.322;2023-03-19T01:02:01;100664.66;;;4.30;77.52
64521;BME280;50896;46.714;17.322;2023-03-19T01:04:28;100658.31;;;4.33;77.34
64521;BME280;50896;46.714;17.322;2023-03-19T01:06:55;100668.22;;;4.29;76.49
64521;BME280;50896;46.714;17.322;2023-03-19T01:09:24;100661.53;;;4.25;78.10
64521;BME280;50896;46.714;17.322;2023-03-19T01:11:51;100656.38;;;4.23;78.51
64521;BME280;50896;46.714;17.322;2023-03-19T01:14:18;100653.13;;;4.20;77.68
64521;BME280;50896;46.714;17.322;2023-03-19T01:16:45;100661.03;;;4.20;75.79
64521;BME280;50896;46.714;17.322;2023-03-19T01:19:12;100654.78;;;4.09;76.95
64521;BME280;50896;46.714;17.322;2023-03-19T01:21:39;100646.09;;;3.96;77.90
64521;BME280;50896;46.714;17.322;2023-03-19T01:24:09;100656.50;;;3.98;76.17
64521;BME280;50896;46.714;17.322;2023-03-19T01:26:36;100653.94;;;3.85;77.46
64521;BME280;50896;46.714;17.322;2023-03-19T01:29:17;100605.19;;;3.56;78.29
64521;BME280;50896;46.714;17.322;2023-03-19T01:31:44;100646.75;;;3.75;79.13
64521;BME280;50896;46.714;17.322;2023-03-19T01:34:27;100646.91;;;3.61;80.53
64521;BME280;50896;46.714;17.322;2023-03-19T01:37:00;100645.56;;;3.55;81.46
64521;BME280;50896;46.714;17.322;2023-03-19T01:39:31;100648.53;;;3.51;80.52
64521;BME280;50896;46.714;17.322;2023-03-19T01:42:00;100639.53;;;3.42;82.64
64521;BME280;50896;46.714;17.322;2023-03-19T01:44:36;100628.91;;;3.31;81.22
64521;BME280;50896;46.714;17.322;2023-03-19T01:50:36;100642.47;;;3.37;82.24
64521;BME280;50896;46.714;17.322;2023-03-19T01:53:28;100648.88;;;3.33;83.45
64521;BME280;50896;46.714;17.322;2023-03-19T01:56:12;100647.25;;;3.19;85.33
64521;BME280;50896;46.714;17.322;2023-03-19T01:59:20;100636.56;;;2.97;82.11
64521;BME280;50896;46.714;17.322;2023-03-19T02:02:20;100655.28;;;2.92;80.41
64521;BME280;50896;46.714;17.322;2023-03-19T02:04:52;100649.72;;;2.84;82.33
64521;BME280;50896;46.714;17.322;2023-03-19T02:07:22;100653.94;;;2.73;84.04
64521;BME280;50896;46.714;17.322;2023-03-19T02:09:49;100636.31;;;2.50;84.98
64521;BME280;50896;46.714;17.322;2023-03-19T02:12:16;100653.00;;;2.62;87.20
64521;BME280;50896;46.714;17.322;2023-03-19T02:14:43;100660.66;;;2.52;85.13
64521;BME280;50896;46.714;17.322;2023-03-19T02:17:10;100626.94;;;2.33;86.97
64521;BME280;50896;46.714;17.322;2023-03-19T02:22:30;100635.44;;;2.24;90.32
64521;BME280;50896;46.714;17.322;2023-03-19T02:25:10;100646.44;;;2.29;94.41
64521;BME280;50896;46.714;17.322;2023-03-19T02:27:42;100641.03;;;2.32;95.44
64521;BME280;50896;46.714;17.322;2023-03-19T02:30:18;100649.00;;;2.30;97.01
64521;BME280;50896;46.714;17.322;2023-03-19T02:32:45;100651.69;;;2.29;97.42
64521;BME280;50896;46.714;17.322;2023-03-19T02:35:12;100657.91;;;2.28;99.36
64521;BME280;50896;46.714;17.322;2023-03-19T02:37:39;100638.34;;;2.19;100.00
64521;BME280;50896;46.714;17.322;2023-03-19T02:40:15;100653.38;;;2.30;100.00
64521;BME280;50896;46.714;17.322;2023-03-19T02:42:45;100649.00;;;2.30;100.00
64521;BME280;50896;46.714;17.322;2023-03-19T02:45:13;100649.19;;;2.27;100.00
64521;BME280;50896;46.714;17.322;2023-03-19T02:47:40;100652.84;;;2.25;100.00
64521;BME280;50896;46.714;17.322;2023-03-19T02:50:08;100649.19;;;2.27;100.00
64521;BME280;50896;46.714;17.322;2023-03-19T02:52:35;100650.66;;;2.31;100.00
64521;BME280;50896;46.714;17.322;2023-03-19T02:55:02;100652.44;;;2.31;100.00
64521;BME280;50896;46.714;17.322;2023-03-19T02:57:29;100658.63;;;2.30;100.00
64521;BME280;50896;46.714;17.322;2023-03-19T02:59:56;100638.78;;;2.13;100.00
64521;BME280;50896;46.714;17.322;2023-03-19T03:02:23;100650.84;;;2.15;99.69
64521;BME280;50896;46.714;17.322;2023-03-19T03:04:50;100668.69;;;2.23;100.00
64521;BME280;50896;46.714;17.322;2023-03-19T03:07:17;100672.06;;;2.25;100.00
64521;BME280;50896;46.714;17.322;2023-03-19T03:09:44;100669.56;;;2.24;99.59
64521;BME280;50896;46.714;17.322;2023-03-19T03:12:11;100663.88;;;2.17;97.46
64521;BME280;50896;46.714;17.322;2023-03-19T03:14:38;100675.09;;;2.19;100.00
64521;BME280;50896;46.714;17.322;2023-03-19T03:17:06;100662.81;;;2.07;100.00
64521;BME280;50896;46.714;17.322;2023-03-19T03:19:34;100674.47;;;2.15;100.00
64521;BME280;50896;46.714;17.322;2023-03-19T03:22:01;100660.22;;;1.92;100.00
64521;BME280;50896;46.714;17.322;2023-03-19T03:24:28;100665.09;;;1.98;100.00
64521;BME280;50896;46.714;17.322;2023-03-19T03:26:55;100681.34;;;2.03;100.00
64521;BME280;50896;46.714;17.322;2023-03-19T03:29:22;100681.44;;;2.02;100.00
64521;BME280;50896;46.714;17.322;2023-03-19T03:31:49;100685.75;;;2.03;100.00
64521;BME280;50896;46.714;17.322;2023-03-19T03:34:16;100659.41;;;1.92;100.00
64521;BME280;50896;46.714;17.322;2023-03-19T03:36:43;100682.31;;;2.02;100.00
64521;BME280;50896;46.714;17.322;2023-03-19T03:39:12;100681.06;;;2.08;100.00
64521;BME280;50896;46.714;17.322;2023-03-19T03:41:40;100660.34;;;2.03;100.00
64521;BME280;50896;46.714;17.322;2023-03-19T03:44:07;100677.59;;;2.20;100.00
64521;BME280;50896;46.714;17.322;2023-03-19T03:46:37;100684.97;;;2.28;100.00
64521;BME280;50896;46.714;17.322;2023-03-19T03:49:03;100684.75;;;2.31;100.00
64521;BME280;50896;46.714;17.322;2023-03-19T03:51:30;100678.59;;;2.32;100.00
64521;BME280;50896;46.714;17.322;2023-03-19T03:53:58;100669.94;;;2.17;100.00
64521;BME280;50896;46.714;17.322;2023-03-19T03:56:25;100682.66;;;2.24;100.00
64521;BME280;50896;46.714;17.322;2023-03-19T03:58:52;100687.72;;;2.27;100.00
64521;BME280;50896;46.714;17.322;2023-03-19T04:01:19;100665.00;;;2.13;100.00
64521;BME280;50896;46.714;17.322;2023-03-19T04:03:53;100680.34;;;2.19;100.00
64521;BME280;50896;46.714;17.322;2023-03-19T04:06:22;100693.59;;;2.30;100.00
64521;BME280;50896;46.714;17.322;2023-03-19T04:09:05;100689.56;;;2.25;100.00
64521;BME280;50896;46.714;17.322;2023-03-19T04:11:34;100681.28;;;2.18;100.00
64521;BME280;50896;46.714;17.322;2023-03-19T04:14:01;100690.53;;;2.24;100.00
64521;BME280;50896;46.714;17.322;2023-03-19T04:16:31;100688.84;;;2.22;100.00
64521;BME280;50896;46.714;17.322;2023-03-19T04:18:58;100680.53;;;2.16;100.00
64521;BME280;50896;46.714;17.322;2023-03-19T04:21:25;100670.97;;;2.15;100.00
64521;BME280;50896;46.714;17.322;2023-03-19T04:23:52;100654.19;;;2.04;100.00
64521;BME280;50896;46.714;17.322;2023-03-19T04:26:19;100672.47;;;2.19;100.00
64521;BME280;50896;46.714;17.322;2023-03-19T04:28:45;100671.97;;;2.27;100.00
64521;BME280;50896;46.714;17.322;2023-03-19T04:31:12;100677.66;;;2.33;100.00
64521;BME280;50896;46.714;17.322;2023-03-19T04:33:42;100671.25;;;2.37;100.00
64521;BME280;50896;46.714;17.322;2023-03-19T04:36:10;100666.41;;;2.31;100.00
64521;BME280;50896;46.714;17.322;2023-03-19T04:38:37;100656.88;;;2.30;100.00
64521;BME280;50896;46.714;17.322;2023-03-19T04:41:04;100642.88;;;2.17;100.00
64521;BME280;50896;46.714;17.322;2023-03-19T04:43:33;100670.06;;;2.29;100.00
64521;BME280;50896;46.714;17.322;2023-03-19T04:46:03;100653.81;;;2.24;100.00
64521;BME280;50896;46.714;17.322;2023-03-19T04:48:30;100662.84;;;2.32;100.00
64521;BME280;50896;46.714;17.322;2023-03-19T04:50:57;100665.34;;;2.34;100.00
64521;BME280;50896;46.714;17.322;2023-03-19T04:53:24;100666.41;;;2.31;100.00
64521;BME280;50896;46.714;17.322;2023-03-19T04:55:51;100657.16;;;2.26;100.00
64521;BME280;50896;46.714;17.322;2023-03-19T04:58:19;100677.00;;;2.43;100.00
64521;BME280;50896;46.714;17.322;2023-03-19T05:00:54;100676.84;;;2.46;100.00
64521;BME280;50896;46.714;17.322;2023-03-19T05:03:31;100673.66;;;2.41;100.00
64521;BME280;50896;46.714;17.322;2023-03-19T05:05:59;100661.91;;;2.33;100.00
64521;BME280;50896;46.714;17.322;2023-03-19T05:08:28;100680.72;;;2.40;100.00
64521;BME280;50896;46.714;17.322;2023-03-19T05:10:55;100684.69;;;2.46;100.00
64521;BME280;50896;46.714;17.322;2023-03-19T05:13:24;100657.91;;;2.41;100.00
64521;BME280;50896;46.714;17.322;2023-03-19T05:15:53;100663.72;;;2.46;100.00
64521;BME280;50896;46.714;17.322;2023-03-19T05:18:21;100674.31;;;2.57;100.00
64521;BME280;50896;46.714;17.322;2023-03-19T05:20:48;100682.63;;;2.64;100.00
64521;BME280;50896;46.714;17.322;2023-03-19T05:23:18;100677.03;;;2.68;100.00
64521;BME280;50896;46.714;17.322;2023-03-19T05:26:06;100676.00;;;2.84;100.00
64521;BME280;50896;46.714;17.322;2023-03-19T05:28:52;100685.13;;;2.91;100.00
64521;BME280;50896;46.714;17.322;2023-03-19T05:31:27;100672.50;;;3.09;100.00
64521;BME280;50896;46.714;17.322;2023-03-19T05:33:55;100674.16;;;3.23;100.00
64521;BME280;50896;46.714;17.322;2023-03-19T05:36:22;100668.78;;;3.24;100.00
64521;BME280;50896;46.714;17.322;2023-03-19T05:39:00;100679.56;;;3.46;100.00
64521;BME280;50896;46.714;17.322;2023-03-19T05:41:32;100686.22;;;3.63;100.00
64521;BME280;50896;46.714;17.322;2023-03-19T05:44:03;100684.63;;;3.73;100.00
64521;BME280;50896;46.714;17.322;2023-03-19T05:46:47;100688.38;;;3.82;100.00
64521;BME280;50896;46.714;17.322;2023-03-19T05:49:16;100664.00;;;3.80;100.00
64521;BME280;50896;46.714;17.322;2023-03-19T05:51:42;100655.88;;;3.83;100.00
64521;BME280;50896;46.714;17.322;2023-03-19T05:54:09;100681.09;;;4.09;100.00
64521;BME280;50896;46.714;17.322;2023-03-19T05:56:58;100672.13;;;4.12;100.00
64521;BME280;50896;46.714;17.322;2023-03-19T05:59:43;100679.69;;;4.17;100.00
64521;BME280;50896;46.714;17.322;2023-03-19T06:02:25;100651.09;;;4.12;100.00
64521;BME280;50896;46.714;17.322;2023-03-19T06:05:06;100677.34;;;4.36;98.37
64521;BME280;50896;46.714;17.322;2023-03-19T06:07:34;100682.88;;;4.44;98.23
64521;BME280;50896;46.714;17.322;2023-03-19T06:10:04;100665.88;;;4.37;99.93
64521;BME280;50896;46.714;17.322;2023-03-19T06:12:32;100658.47;;;4.42;99.12
64521;BME280;50896;46.714;17.322;2023-03-19T06:15:19;100676.44;;;4.60;98.64
64521;BME280;50896;46.714;17.322;2023-03-19T06:18:04;100644.81;;;4.49;95.82
64521;BME280;50896;46.714;17.322;2023-03-19T06:20:31;100682.47;;;4.73;95.48
64521;BME280;50896;46.714;17.322;2023-03-19T06:22:58;100678.63;;;4.77;94.24
64521;BME280;50896;46.714;17.322;2023-03-19T06:25:26;100686.78;;;4.86;91.74
64521;BME280;50896;46.714;17.322;2023-03-19T06:27:52;100689.75;;;4.92;91.59
64521;BME280;50896;46.714;17.322;2023-03-19T06:30:26;100687.72;;;4.85;91.66
64521;BME280;50896;46.714;17.322;2023-03-19T06:32:57;100700.22;;;4.94;90.83
64521;BME280;50896;46.714;17.322;2023-03-19T06:35:24;100708.13;;;5.05;89.17
64521;BME280;50896;46.714;17.322;2023-03-19T06:37:51;100701.78;;;5.19;87.61
64521;BME280;50896;46.714;17.322;2023-03-19T06:40:18;100703.41;;;5.20;85.69
64521;BME280;50896;46.714;17.322;2023-03-19T06:42:46;100705.09;;;5.21;85.31
64521;BME280;50896;46.714;17.322;2023-03-19T06:45:15;100710.00;;;5.26;85.12
64521;BME280;50896;46.714;17.322;2023-03-19T06:47:45;100716.97;;;5.27;85.89
64521;BME280;50896;46.714;17.322;2023-03-19T06:50:14;100722.13;;;5.28;85.10
64521;BME280;50896;46.714;17.322;2023-03-19T06:52:41;100719.13;;;5.44;84.44
64521;BME280;50896;46.714;17.322;2023-03-19T06:55:09;100729.53;;;5.57;82.88
64521;BME280;50896;46.714;17.322;2023-03-19T06:57:37;100721.38;;;5.60;82.81
64521;BME280;50896;46.714;17.322;2023-03-19T07:00:05;100717.28;;;5.68;80.16
64521;BME280;50896;46.714;17.322;2023-03-19T07:02:32;100729.38;;;5.70;79.98
64521;BME280;50896;46.714;17.322;2023-03-19T07:04:59;100719.06;;;5.78;80.08
64521;BME280;50896;46.714;17.322;2023-03-19T07:07:25;100717.25;;;5.90;79.19
64521;BME280;50896;46.714;17.322;2023-03-19T07:09:52;100719.50;;;5.95;77.81
64521;BME280;50896;46.714;17.322;2023-03-19T07:12:19;100700.81;;;5.98;76.45
64521;BME280;50896;46.714;17.322;2023-03-19T07:14:46;100708.31;;;6.14;76.00
64521;BME280;50896;46.714;17.322;2023-03-19T07:17:13;100712.34;;;6.18;75.85
64521;BME280;50896;46.714;17.322;2023-03-19T07:19:40;100720.81;;;6.33;75.00
64521;BME280;50896;46.714;17.322;2023-03-19T07:22:06;100704.28;;;6.31;73.79
64521;BME280;50896;46.714;17.322;2023-03-19T07:24:33;100692.22;;;6.38;73.96
64521;BME280;50896;46.714;17.322;2023-03-19T07:27:00;100701.31;;;6.45;74.66
64521;BME280;50896;46.714;17.322;2023-03-19T07:29:27;100711.88;;;6.45;74.56
64521;BME280;50896;46.714;17.322;2023-03-19T07:31:54;100708.91;;;6.60;74.71
64521;BME280;50896;46.714;17.322;2023-03-19T07:34:21;100721.09;;;6.72;74.12
64521;BME280;50896;46.714;17.322;2023-03-19T07:36:48;100719.84;;;6.97;75.42
64521;BME280;50896;46.714;17.322;2023-03-19T07:39:16;100718.56;;;6.92;71.88
64521;BME280;50896;46.714;17.322;2023-03-19T07:41:43;100714.34;;;7.10;74.80
64521;BME280;50896;46.714;17.322;2023-03-19T07:44:17;100721.88;;;7.15;79.32
64521;BME280;50896;46.714;17.322;2023-03-19T07:46:43;100725.81;;;7.21;78.81
64521;BME280;50896;46.714;17.322;2023-03-19T07:49:10;100710.94;;;7.29;77.72
64521;BME280;50896;46.714;17.322;2023-03-19T07:51:37;100700.50;;;7.28;80.72
64521;BME280;50896;46.714;17.322;2023-03-19T07:54:04;100713.69;;;7.18;84.45
64521;BME280;50896;46.714;17.322;2023-03-19T07:56:32;100708.53;;;7.16;83.70
64521;BME280;50896;46.714;17.322;2023-03-19T07:58:59;100706.94;;;7.04;87.10
64521;BME280;50896;46.714;17.322;2023-03-19T08:01:26;100689.22;;;6.95;88.46
64521;BME280;50896;46.714;17.322;2023-03-19T08:03:53;100698.41;;;6.91;90.81
64521;BME280;50896;46.714;17.322;2023-03-19T08:06:19;100690.34;;;6.92;90.57
64521;BME280;50896;46.714;17.322;2023-03-19T08:08:47;100699.53;;;6.98;92.57
64521;BME280;50896;46.714;17.322;2023-03-19T08:11:14;100706.75;;;6.96;93.26
64521;BME280;50896;46.714;17.322;2023-03-19T08:13:41;100699.63;;;6.87;92.69
64521;BME280;50896;46.714;17.322;2023-03-19T08:16:08;100697.69;;;6.89;94.06
64521;BME280;50896;46.714;17.322;2023-03-19T08:18:35;100712.19;;;6.94;97.11
64521;BME280;50896;46.714;17.322;2023-03-19T08:21:02;100722.88;;;6.93;96.09
64521;BME280;50896;46.714;17.322;2023-03-19T08:23:30;100701.19;;;6.99;95.67
64521;BME280;50896;46.714;17.322;2023-03-19T08:25:56;100711.84;;;7.18;96.30
64521;BME280;50896;46.714;17.322;2023-03-19T08:28:23;100723.97;;;7.21;97.48
64521;BME280;50896;46.714;17.322;2023-03-19T08:30:50;100715.22;;;7.21;98.66
64521;BME280;50896;46.714;17.322;2023-03-19T08:33:17;100711.84;;;7.18;98.54
64521;BME280;50896;46.714;17.322;2023-03-19T08:35:44;100708.84;;;7.23;97.07
64521;BME280;50896;46.714;17.322;2023-03-19T08:38:11;100711.34;;;7.25;100.00
64521;BME280;50896;46.714;17.322;2023-03-19T08:40:38;100697.16;;;7.26;97.72
64521;BME280;50896;46.714;17.322;2023-03-19T08:43:05;100709.66;;;7.24;96.51
64521;BME280;50896;46.714;17.322;2023-03-19T08:45:32;100702.13;;;7.19;98.94
64521;BME280;50896;46.714;17.322;2023-03-19T08:47:59;100704.66;;;7.21;100.00
64521;BME280;50896;46.714;17.322;2023-03-19T08:50:26;100707.47;;;7.29;100.00
64521;BME280;50896;46.714;17.322;2023-03-19T08:52:53;100689.38;;;7.24;100.00
64521;BME280;50896;46.714;17.322;2023-03-19T08:55:21;100700.91;;;7.23;100.00
64521;BME280;50896;46.714;17.322;2023-03-19T08:57:48;100709.72;;;7.43;100.00
64521;BME280;50896;46.714;17.322;2023-03-19T09:00:15;100718.09;;;7.48;99.12
64521;BME280;50896;46.714;17.322;2023-03-19T09:02:42;100709.09;;;7.61;99.56
64521;BME280;50896;46.714;17.322;2023-03-19T09:05:08;100708.69;;;7.65;98.37
64521;BME280;50896;46.714;17.322;2023-03-19T09:07:35;100700.31;;;7.60;99.40
64521;BME280;50896;46.714;17.322;2023-03-19T09:10:02;100698.50;;;7.61;100.00
64521;BME280;50896;46.714;17.322;2023-03-19T09:12:29;100699.78;;;7.66;97.74
64521;BME280;50896;46.714;17.322;2023-03-19T09:14:56;100700.31;;;7.70;98.49
64521;BME280;50896;46.714;17.322;2023-03-19T09:17:23;100698.94;;;7.76;95.54
64521;BME280;50896;46.714;17.322;2023-03-19T09:19:49;100676.38;;;7.72;94.74
64521;BME280;50896;46.714;17.322;2023-03-19T09:22:16;100689.22;;;7.96;96.02
64521;BME280;50896;46.714;17.322;2023-03-19T09:24:43;100666.22;;;7.86;94.96
64521;BME280;50896;46.714;17.322;2023-03-19T09:27:10;100687.53;;;7.95;91.22
64521;BME280;50896;46.714;17.322;2023-03-19T09:29:37;100685.47;;;7.89;91.52
64521;BME280;50896;46.714;17.322;2023-03-19T09:32:04;100680.28;;;7.77;90.03
64521;BME280;50896;46.714;17.322;2023-03-19T09:34:31;100698.38;;;7.72;91.09
64521;BME280;50896;46.714;17.322;2023-03-19T09:36:58;100701.56;;;7.66;92.60
64521;BME280;50896;46.714;17.322;2023-03-19T09:39:24;100698.91;;;7.66;93.37
64521;BME280;50896;46.714;17.322;2023-03-19T09:44:30;100678.75;;;7.65;94.08
64521;BME280;50896;46.714;17.322;2023-03-19T09:47:11;100700.31;;;7.70;94.74
64521;BME280;50896;46.714;17.322;2023-03-19T09:49:46;100697.44;;;7.83;97.18
64521;BME280;50896;46.714;17.322;2023-03-19T09:54:50;100698.28;;;8.03;89.77
64521;BME280;50896;46.714;17.322;2023-03-19T09:57:18;100692.97;;;7.93;92.93
64521;BME280;50896;46.714;17.322;2023-03-19T09:59:46;100694.81;;;8.02;89.88
64521;BME280;50896;46.714;17.322;2023-03-19T10:08:06;100698.44;;;8.11;98.73
64521;BME280;50896;46.714;17.322;2023-03-19T10:10:49;100691.59;;;8.18;97.81
64521;BME280;50896;46.714;17.322;2023-03-19T10:16:26;100687.53;;;8.14;100.00
64521;BME280;50896;46.714;17.322;2023-03-19T10:19:00;100658.84;;;8.19;98.09
64521;BME280;50896;46.714;17.322;2023-03-19T10:21:52;100672.47;;;8.44;95.62
64521;BME280;50896;46.714;17.322;2023-03-19T10:24:39;100650.16;;;8.37;96.90
64521;BME280;50896;46.714;17.322;2023-03-19T10:27:18;100662.16;;;8.41;98.48
64521;BME280;50896;46.714;17.322;2023-03-19T10:29:45;100658.25;;;8.55;97.96
64521;BME280;50896;46.714;17.322;2023-03-19T10:32:43;100662.00;;;8.62;97.26
64521;BME280;50896;46.714;17.322;2023-03-19T10:35:22;100651.66;;;8.69;92.40
64521;BME280;50896;46.714;17.322;2023-03-19T10:37:50;100649.69;;;8.81;93.04
64521;BME280;50896;46.714;17.322;2023-03-19T10:40:44;100652.72;;;8.86;91.30
64521;BME280;50896;46.714;17.322;2023-03-19T10:43:21;100642.47;;;9.01;87.63
64521;BME280;50896;46.714;17.322;2023-03-19T10:45:50;100636.03;;;9.03;86.01
64521;BME280;50896;46.714;17.322;2023-03-19T10:48:17;100642.13;;;9.14;81.19
64521;BME280;50896;46.714;17.322;2023-03-19T10:50:57;100637.91;;;9.21;81.06
64521;BME280;50896;46.714;17.322;2023-03-19T10:53:33;100626.25;;;9.04;82.53
64521;BME280;50896;46.714;17.322;2023-03-19T10:58:33;100628.03;;;9.13;81.83
64521;BME280;50896;46.714;17.322;2023-03-19T11:01:09;100609.06;;;9.08;83.10
64521;BME280;50896;46.714;17.322;2023-03-19T11:03:39;100622.00;;;9.39;81.46
64521;BME280;50896;46.714;17.322;2023-03-19T11:06:33;100617.81;;;9.46;79.02
64521;BME280;50896;46.714;17.322;2023-03-19T11:09:13;100608.69;;;9.67;77.51
64521;BME280;50896;46.714;17.322;2023-03-19T11:11:44;100607.72;;;9.86;76.07
64521;BME280;50896;46.714;17.322;2023-03-19T11:14:26;100610.06;;;9.89;74.75
64521;BME280;50896;46.714;17.322;2023-03-19T11:19:53;100579.53;;;9.93;74.45
64521;BME280;50896;46.714;17.322;2023-03-19T11:22:27;100588.66;;;9.90;75.46
64521;BME280;50896;46.714;17.322;2023-03-19T11:24:59;100580.22;;;10.13;74.49
64521;BME280;50896;46.714;17.322;2023-03-19T11:27:34;100562.91;;;10.09;74.97
64521;BME280;50896;46.714;17.322;2023-03-19T11:30:11;100577.09;;;10.18;73.03
64521;BME280;50896;46.714;17.322;2023-03-19T11:35:24;100563.06;;;10.60;71.15
64521;BME280;50896;46.714;17.322;2023-03-19T11:37:56;100565.94;;;10.67;70.63
64521;BME280;50896;46.714;17.322;2023-03-19T11:40:59;100561.47;;;10.75;69.91
64521;BME280;50896;46.714;17.322;2023-03-19T11:52:24;100536.69;;;13.44;57.99
64521;BME280;50896;46.714;17.322;2023-03-19T12:14:46;100510.47;;;12.45;62.89
64521;BME280;50896;46.714;17.322;2023-03-19T12:17:32;100508.72;;;12.12;64.53
64521;BME280;50896;46.714;17.322;2023-03-19T12:20:18;100493.94;;;11.85;66.96
64521;BME280;50896;46.714;17.322;2023-03-19T12:23:12;100486.13;;;11.59;67.59
64521;BME280;50896;46.714;17.322;2023-03-19T12:31:24;100481.28;;;11.13;67.82
64521;BME280;50896;46.714;17.322;2023-03-19T12:34:16;100483.63;;;11.08;67.71
64521;BME280;50896;46.714;17.322;2023-03-19T12:36:51;100465.41;;;10.78;68.90
64521;BME280;50896;46.714;17.322;2023-03-19T12:39:27;100473.94;;;10.90;71.71
64521;BME280;50896;46.714;17.322;2023-03-19T12:41:57;100468.59;;;10.82;72.82
64521;BME280;50896;46.714;17.322;2023-03-19T12:44:36;100469.41;;;10.83;72.49
64521;BME280;50896;46.714;17.322;2023-03-19T12:47:30;100458.97;;;10.89;73.85
64521;BME280;50896;46.714;17.322;2023-03-19T12:50:00;100458.31;;;10.96;74.59
64521;BME280;50896;46.714;17.322;2023-03-19T12:52:37;100462.63;;;11.05;75.29
64521;BME280;50896;46.714;17.322;2023-03-19T12:55:17;100444.16;;;10.95;73.83
64521;BME280;50896;46.714;17.322;2023-03-19T12:58:13;100460.66;;;11.07;75.39
64521;BME280;50896;46.714;17.322;2023-03-19T13:01:09;100453.84;;;11.13;75.00
64521;BME280;50896;46.714;17.322;2023-03-19T13:06:50;100458.50;;;11.10;72.04
64521;BME280;50896;46.714;17.322;2023-03-19T13:09:27;100450.03;;;11.07;72.02
64521;BME280;50896;46.714;17.322;2023-03-19T13:12:00;100445.53;;;11.07;72.23
64521;BME280;50896;46.714;17.322;2023-03-19T13:20:19;100426.75;;;11.25;65.38
64521;BME280;50896;46.714;17.322;2023-03-19T13:22:54;100435.72;;;11.33;66.70
64521;BME280;50896;46.714;17.322;2023-03-19T13:25:29;100420.78;;;11.23;66.65
64521;BME280;50896;46.714;17.322;2023-03-19T13:27:57;100415.28;;;11.25;64.13
64521;BME280;50896;46.714;17.322;2023-03-19T13:30:24;100427.56;;;11.26;65.25
64521;BME280;50896;46.714;17.322;2023-03-19T13:33:01;100415.44;;;11.32;63.48
64521;BME280;50896;46.714;17.322;2023-03-19T13:35:50;100404.75;;;11.48;63.91
64521;BME280;50896;46.714;17.322;2023-03-19T13:38:26;100418.75;;;11.58;64.25
64521;BME280;50896;46.714;17.322;2023-03-19T13:40:57;100402.25;;;11.55;62.74
64521;BME280;50896;46.714;17.322;2023-03-19T13:51:01;100422.38;;;11.74;62.68
64521;BME280;50896;46.714;17.322;2023-03-19T13:53:51;100401.56;;;11.69;61.75
64521;BME280;50896;46.714;17.322;2023-03-19T13:56:18;100416.09;;;11.58;62.35
64521;BME280;50896;46.714;17.322;2023-03-19T13:59:22;100407.41;;;11.48;65.72
64521;BME280;50896;46.714;17.322;2023-03-19T14:01:50;100406.94;;;11.36;68.27
64521;BME280;50896;46.714;17.322;2023-03-19T14:04:21;100399.31;;;11.25;68.26
64521;BME280;50896;46.714;17.322;2023-03-19T14:07:09;100411.94;;;11.23;68.49
64521;BME280;50896;46.714;17.322;2023-03-19T14:09:44;100407.94;;;11.19;69.52
64521;BME280;50896;46.714;17.322;2023-03-19T14:14:50;100399.78;;;11.12;67.97
64521;BME280;50896;46.714;17.322;2023-03-19T14:17:40;100390.97;;;11.03;68.06
64521;BME280;50896;46.714;17.322;2023-03-19T14:22:55;100381.50;;;11.09;68.86
64521;BME280;50896;46.714;17.322;2023-03-19T14:25:55;100392.81;;;11.11;68.81
64521;BME280;50896;46.714;17.322;2023-03-19T14:31:01;100378.66;;;11.02;67.70
64521;BME280;50896;46.714;17.322;2023-03-19T14:36:22;100386.66;;;10.86;68.35